createdAt,value
2023-04-19T00:00:41.810Z,9.99
2023-04-19T00:01:41.857Z,10.00
2023-04-19T00:02:42.883Z,9.99
2023-04-19T00:03:41.974Z,9.99
2023-04-19T00:04:41.984Z,9.99
2023-04-19T00:05:41.828Z,9.97
2023-04-19T00:06:41.806Z,9.96
2023-04-19T00:07:41.880Z,9.97
2023-04-19T00:08:41.887Z,9.97
2023-04-19T00:09:41.849Z,9.97
2023-04-19T00:10:41.876Z,9.96
2023-04-19T00:11:41.828Z,9.95
2023-04-19T00:12:41.851Z,9.95
2023-04-19T00:13:41.905Z,9.95
2023-04-19T00:14:41.893Z,9.95
2023-04-19T00:15:41.910Z,9.95
2023-04-19T00:16:41.993Z,9.94
2023-04-19T00:17:41.940Z,9.94
2023-04-19T00:18:41.954Z,9.95
2023-04-19T00:19:41.964Z,9.94
2023-04-19T00:20:41.934Z,9.94
2023-04-19T00:21:41.944Z,9.93
2023-04-19T00:22:41.990Z,9.93
2023-04-19T00:23:41.976Z,9.93
2023-04-19T00:24:41.989Z,9.92
2023-04-19T00:25:42.032Z,9.93
2023-04-19T00:26:42.008Z,9.93
2023-04-19T00:27:41.980Z,9.92
2023-04-19T00:28:41.984Z,9.92
2023-04-19T00:29:42.091Z,9.92
2023-04-19T00:30:42.129Z,9.92
2023-04-19T00:31:42.055Z,9.92
2023-04-19T00:32:42.151Z,9.92
2023-04-19T00:33:42.095Z,9.91
2023-04-19T00:34:42.084Z,9.92
2023-04-19T00:35:42.129Z,9.92
2023-04-19T00:36:42.165Z,9.93
2023-04-19T00:37:42.160Z,9.92
2023-04-19T00:38:42.139Z,9.92
2023-04-19T00:39:42.273Z,9.91
2023-04-19T00:40:42.298Z,9.91
2023-04-19T00:41:42.304Z,9.92
2023-04-19T00:42:42.263Z,9.92
2023-04-19T00:43:42.308Z,9.90
2023-04-19T00:44:42.313Z,9.90
2023-04-19T00:45:42.304Z,9.90
2023-04-19T00:46:42.362Z,9.88
2023-04-19T00:47:42.329Z,9.87
2023-04-19T00:48:42.294Z,9.86
2023-04-19T00:49:42.292Z,9.86
2023-04-19T00:50:42.306Z,9.88
2023-04-19T00:51:42.331Z,9.87
2023-04-19T00:52:42.357Z,9.87
2023-04-19T00:53:42.329Z,9.87
2023-04-19T00:54:42.341Z,9.88
2023-04-19T00:55:42.429Z,9.88
2023-04-19T00:56:42.398Z,9.90
2023-04-19T00:57:42.370Z,9.89
2023-04-19T00:58:42.409Z,9.89
2023-04-19T00:59:42.401Z,9.87
2023-04-19T01:00:42.404Z,9.85
2023-04-19T01:01:42.536Z,9.84
2023-04-19T01:02:42.641Z,9.82
2023-04-19T01:03:42.666Z,9.81
2023-04-19T01:04:42.530Z,9.76
2023-04-19T01:05:42.516Z,9.73
2023-04-19T01:06:42.494Z,9.71
2023-04-19T01:07:42.518Z,9.69
2023-04-19T01:08:42.520Z,9.65
2023-04-19T01:09:42.511Z,9.63
2023-04-19T01:10:42.528Z,9.61
2023-04-19T01:11:43.315Z,9.59
2023-04-19T01:13:42.550Z,9.56
2023-04-19T01:14:42.667Z,9.55
2023-04-19T01:15:42.740Z,9.54
2023-04-19T01:16:42.697Z,9.53
2023-04-19T01:17:42.711Z,9.51
2023-04-19T01:18:42.719Z,9.51
2023-04-19T01:19:42.720Z,9.50
2023-04-19T01:20:42.737Z,9.49
2023-04-19T01:21:42.708Z,9.47
2023-04-19T01:22:42.727Z,9.47
2023-04-19T01:23:42.736Z,9.47
2023-04-19T01:24:42.766Z,9.45
2023-04-19T01:25:42.733Z,9.46
2023-04-19T01:26:42.836Z,9.47
2023-04-19T01:27:42.844Z,9.48
2023-04-19T01:28:42.855Z,9.49
2023-04-19T01:29:42.840Z,9.50
2023-04-19T01:30:42.873Z,9.50
2023-04-19T01:31:42.890Z,9.50
2023-04-19T01:32:42.919Z,9.51
2023-04-19T01:33:42.884Z,9.49
2023-04-19T01:34:42.982Z,9.50
2023-04-19T01:35:42.875Z,9.50
2023-04-19T01:36:42.863Z,9.51
2023-04-19T01:37:42.851Z,9.51
2023-04-19T01:38:42.869Z,9.50
2023-04-19T01:39:42.911Z,9.49
2023-04-19T01:40:42.917Z,9.49
2023-04-19T01:41:42.901Z,9.46
2023-04-19T01:42:42.923Z,9.44
2023-04-19T01:43:42.948Z,9.42
2023-04-19T01:44:42.918Z,9.41
2023-04-19T01:46:05.026Z,9.38
2023-04-19T01:47:04.942Z,9.35
2023-04-19T01:48:04.898Z,9.33
2023-04-19T01:49:04.817Z,9.29
2023-04-19T01:50:04.798Z,9.26
2023-04-19T01:51:04.803Z,9.23
2023-04-19T01:52:04.809Z,9.19
2023-04-19T01:53:04.823Z,9.15
2023-04-19T01:54:04.822Z,9.11
2023-04-19T01:55:04.822Z,9.06
2023-04-19T01:56:04.824Z,9.02
2023-04-19T01:57:04.794Z,8.97
2023-04-19T01:58:04.802Z,8.90
2023-04-19T01:59:04.823Z,8.86
2023-04-19T02:00:04.868Z,8.82
2023-04-19T02:01:04.914Z,8.79
2023-04-19T02:02:04.872Z,8.75
2023-04-19T02:03:05.012Z,8.72
2023-04-19T02:04:04.973Z,8.70
2023-04-19T02:05:04.835Z,8.67
2023-04-19T02:06:04.869Z,8.66
2023-04-19T02:07:04.820Z,8.63
2023-04-19T02:08:04.800Z,8.62
2023-04-19T02:09:04.889Z,8.60
2023-04-19T02:10:04.826Z,8.57
2023-04-19T02:11:04.851Z,8.55
2023-04-19T02:12:04.852Z,8.52
2023-04-19T02:13:04.845Z,8.50
2023-04-19T02:14:04.826Z,8.47
2023-04-19T02:15:04.808Z,8.45
2023-04-19T02:16:04.885Z,8.44
2023-04-19T02:17:04.831Z,8.43
2023-04-19T02:18:04.860Z,8.42
2023-04-19T02:19:04.847Z,8.40
2023-04-19T02:20:04.844Z,8.39
2023-04-19T02:21:05.002Z,8.38
2023-04-19T02:22:05.004Z,8.37
2023-04-19T02:23:04.990Z,8.36
2023-04-19T02:24:05.043Z,8.35
2023-04-19T02:25:05.028Z,8.35
2023-04-19T02:26:05.054Z,8.34
2023-04-19T02:27:05.035Z,8.34
2023-04-19T02:28:05.148Z,8.34
2023-04-19T02:29:06.977Z,8.34
2023-04-19T02:30:05.183Z,8.34
2023-04-19T02:31:05.271Z,8.34
2023-04-19T02:32:05.256Z,8.35
2023-04-19T02:33:05.200Z,8.35
2023-04-19T02:34:05.206Z,8.37
2023-04-19T02:35:05.176Z,8.37
2023-04-19T02:36:05.209Z,8.39
2023-04-19T02:37:05.181Z,8.40
2023-04-19T02:38:05.191Z,8.40
2023-04-19T02:39:05.206Z,8.42
2023-04-19T02:40:05.240Z,8.43
2023-04-19T02:41:05.240Z,8.44
2023-04-19T02:42:05.255Z,8.43
2023-04-19T02:43:05.423Z,8.44
2023-04-19T02:44:05.248Z,8.43
2023-04-19T02:45:05.339Z,8.43
2023-04-19T02:46:05.343Z,8.42
2023-04-19T02:47:05.316Z,8.43
2023-04-19T02:48:05.474Z,8.46
2023-04-19T02:49:05.329Z,8.47
2023-04-19T02:50:05.317Z,8.50
2023-04-19T02:51:05.356Z,8.53
2023-04-19T02:52:05.339Z,8.56
2023-04-19T02:53:05.398Z,8.58
2023-04-19T02:54:05.357Z,8.60
2023-04-19T02:55:05.415Z,8.61
2023-04-19T02:56:05.400Z,8.64
2023-04-19T02:57:05.430Z,8.65
2023-04-19T02:58:05.455Z,8.69
2023-04-19T02:59:05.439Z,8.72
2023-04-19T03:00:05.431Z,8.75
2023-04-19T03:01:05.533Z,8.78
2023-04-19T03:02:05.519Z,8.80
2023-04-19T03:03:05.572Z,8.84
2023-04-19T03:04:05.572Z,8.86
2023-04-19T03:05:05.544Z,8.89
2023-04-19T03:06:05.504Z,8.92
2023-04-19T03:07:05.557Z,8.95
2023-04-19T03:08:05.556Z,8.98
2023-04-19T03:09:05.562Z,9.00
2023-04-19T03:10:05.598Z,9.00
2023-04-19T03:11:05.580Z,9.03
2023-04-19T03:12:05.590Z,9.05
2023-04-19T03:13:05.588Z,9.07
2023-04-19T03:14:05.599Z,9.08
2023-04-19T03:15:05.675Z,9.10
2023-04-19T03:16:05.661Z,9.12
2023-04-19T03:17:05.641Z,9.15
2023-04-19T03:18:05.646Z,9.16
2023-04-19T03:19:05.741Z,9.18
2023-04-19T03:20:05.711Z,9.18
2023-04-19T03:21:05.725Z,9.19
2023-04-19T03:22:05.703Z,9.20
2023-04-19T03:23:05.686Z,9.22
2023-04-19T03:24:05.728Z,9.24
2023-04-19T03:25:05.732Z,9.24
2023-04-19T03:26:05.770Z,9.26
2023-04-19T03:27:05.761Z,9.27
2023-04-19T03:28:05.788Z,9.29
2023-04-19T03:29:05.782Z,9.29
2023-04-19T03:30:05.811Z,9.30
2023-04-19T03:31:05.854Z,9.31
2023-04-19T03:32:05.820Z,9.31
2023-04-19T03:33:05.874Z,9.31
2023-04-19T03:34:05.826Z,9.31
2023-04-19T03:35:05.852Z,9.32
2023-04-19T03:36:05.893Z,9.32
2023-04-19T03:37:05.879Z,9.32
2023-04-19T03:38:05.905Z,9.32
2023-04-19T03:39:05.910Z,9.33
2023-04-19T03:40:05.922Z,9.33
2023-04-19T03:41:05.925Z,9.35
2023-04-19T03:42:05.931Z,9.35
2023-04-19T03:43:05.923Z,9.35
2023-04-19T03:44:05.985Z,9.36
2023-04-19T03:45:06.019Z,9.36
2023-04-19T03:46:06.161Z,9.36
2023-04-19T03:47:06.009Z,9.37
2023-04-19T03:48:06.076Z,9.38
2023-04-19T03:49:06.054Z,9.38
2023-04-19T03:50:06.135Z,9.38
2023-04-19T03:51:06.142Z,9.38
2023-04-19T03:52:06.128Z,9.39
2023-04-19T03:53:06.131Z,9.39
2023-04-19T03:54:06.140Z,9.39
2023-04-19T03:55:06.141Z,9.38
2023-04-19T03:56:06.174Z,9.39
2023-04-19T03:57:06.206Z,9.40
2023-04-19T03:58:06.211Z,9.40
2023-04-19T03:59:06.217Z,9.40
2023-04-19T04:00:06.210Z,9.40
2023-04-19T04:01:06.237Z,9.40
2023-04-19T04:02:06.296Z,9.42
2023-04-19T04:03:06.475Z,9.42
2023-04-19T04:04:06.343Z,9.42
2023-04-19T04:05:06.356Z,9.43
2023-04-19T04:06:06.223Z,9.43
2023-04-19T04:07:06.222Z,9.43
2023-04-19T04:08:06.248Z,9.44
2023-04-19T04:09:06.271Z,9.43
2023-04-19T04:10:06.265Z,9.44
2023-04-19T04:11:06.305Z,9.44
2023-04-19T04:12:06.274Z,9.45
2023-04-19T04:13:06.323Z,9.43
2023-04-19T04:14:06.348Z,9.43
2023-04-19T04:15:06.311Z,9.44
2023-04-19T04:16:06.397Z,9.44
2023-04-19T04:17:06.362Z,9.45
2023-04-19T04:18:08.420Z,9.45
2023-04-19T04:19:06.511Z,9.46
2023-04-19T04:20:06.516Z,9.46
2023-04-19T04:21:06.538Z,9.46
2023-04-19T04:22:06.536Z,9.46
2023-04-19T04:23:06.536Z,9.46
2023-04-19T04:24:06.559Z,9.45
2023-04-19T04:25:06.571Z,9.45
2023-04-19T04:26:06.589Z,9.45
2023-04-19T04:27:06.603Z,9.45
2023-04-19T04:28:06.604Z,9.45
2023-04-19T04:29:06.604Z,9.44
2023-04-19T04:30:06.621Z,9.44
2023-04-19T04:31:06.675Z,9.44
2023-04-19T04:32:06.764Z,9.43
2023-04-19T04:33:06.718Z,9.43
2023-04-19T04:34:06.690Z,9.43
2023-04-19T04:35:06.709Z,9.42
2023-04-19T04:36:09.261Z,9.41
2023-04-19T04:37:06.720Z,9.42
2023-04-19T04:38:17.604Z,9.43
2023-04-19T04:39:06.712Z,9.42
2023-04-19T04:40:06.762Z,9.41
2023-04-19T04:41:06.701Z,9.42
2023-04-19T04:42:06.740Z,9.42
2023-04-19T04:43:06.738Z,9.41
2023-04-19T04:44:12.667Z,9.42
2023-04-19T04:45:06.799Z,9.40
2023-04-19T04:46:06.832Z,9.40
2023-04-19T04:47:06.759Z,9.39
2023-04-19T04:48:06.794Z,9.38
2023-04-19T04:49:06.712Z,9.39
2023-04-19T04:50:06.744Z,9.38
2023-04-19T04:51:06.735Z,9.38
2023-04-19T04:52:06.765Z,9.38
2023-04-19T04:53:06.753Z,9.38
2023-04-19T04:54:06.747Z,9.37
2023-04-19T04:55:06.761Z,9.37
2023-04-19T04:56:06.773Z,9.37
2023-04-19T04:57:06.750Z,9.37
2023-04-19T04:58:06.861Z,9.36
2023-04-19T04:59:06.774Z,9.36
2023-04-19T05:00:06.788Z,9.36
2023-04-19T05:01:06.798Z,9.36
2023-04-19T05:02:06.853Z,9.37
2023-04-19T05:03:06.861Z,9.37
2023-04-19T05:04:06.834Z,9.37
2023-04-19T05:05:06.750Z,9.38
2023-04-19T05:06:06.734Z,9.39
2023-04-19T05:07:06.796Z,9.40
2023-04-19T05:08:06.735Z,9.40
2023-04-19T05:09:06.733Z,9.42
2023-04-19T05:10:06.774Z,9.41
2023-04-19T05:11:06.783Z,9.41
2023-04-19T05:12:06.766Z,9.43
2023-04-19T05:13:06.751Z,9.43
2023-04-19T05:14:06.772Z,9.43
2023-04-19T05:15:06.752Z,9.44
2023-04-19T05:16:06.780Z,9.44
2023-04-19T05:17:07.226Z,9.45
2023-04-19T05:18:06.799Z,9.46
2023-04-19T05:19:06.762Z,9.46
2023-04-19T05:20:06.776Z,9.46
2023-04-19T05:21:06.770Z,9.47
2023-04-19T05:22:06.774Z,9.46
2023-04-19T05:23:06.796Z,9.46
2023-04-19T05:24:06.731Z,9.48
2023-04-19T05:25:06.785Z,9.49
2023-04-19T05:26:06.826Z,9.49
2023-04-19T05:27:06.772Z,9.50
2023-04-19T05:28:06.828Z,9.51
2023-04-19T05:29:06.802Z,9.50
2023-04-19T05:30:06.797Z,9.51
2023-04-19T05:31:06.789Z,9.51
2023-04-19T05:32:06.772Z,9.52
2023-04-19T05:33:06.858Z,9.53
2023-04-19T05:34:06.784Z,9.52
2023-04-19T05:35:06.755Z,9.54
2023-04-19T05:36:06.761Z,9.55
2023-04-19T05:37:06.776Z,9.55
2023-04-19T05:38:06.784Z,9.55
2023-04-19T05:39:06.828Z,9.56
2023-04-19T05:40:06.779Z,9.56
2023-04-19T05:41:06.801Z,9.58
2023-04-19T05:42:06.793Z,9.58
2023-04-19T05:43:06.786Z,9.59
2023-04-19T05:44:06.779Z,9.61
2023-04-19T05:45:06.783Z,9.62
2023-04-19T05:46:06.833Z,9.62
2023-04-19T05:47:06.798Z,9.63
2023-04-19T05:48:06.914Z,9.64
2023-04-19T05:49:06.807Z,9.64
2023-04-19T05:50:06.810Z,9.64
2023-04-19T05:51:06.808Z,9.64
2023-04-19T05:52:06.838Z,9.66
2023-04-19T05:53:06.805Z,9.66
2023-04-19T05:54:06.811Z,9.68
2023-04-19T05:55:06.799Z,9.67
2023-04-19T05:56:06.831Z,9.67
2023-04-19T05:57:06.833Z,9.68
2023-04-19T05:58:06.832Z,9.68
2023-04-19T05:59:06.857Z,9.68
2023-04-19T06:00:06.801Z,9.68
2023-04-19T06:01:06.878Z,9.68
2023-04-19T06:02:06.942Z,9.71
2023-04-19T06:03:07.090Z,9.71
2023-04-19T06:04:06.897Z,9.71
2023-04-19T06:05:10.355Z,9.73
2023-04-19T06:06:06.820Z,9.74
2023-04-19T06:07:13.569Z,9.78
2023-04-19T06:08:06.857Z,9.80
2023-04-19T06:09:06.849Z,9.84
2023-04-19T06:10:06.797Z,9.87
2023-04-19T06:11:15.882Z,9.91
2023-04-19T06:12:06.827Z,9.97
2023-04-19T06:13:06.852Z,10.02
2023-04-19T06:14:06.829Z,10.07
2023-04-19T06:15:06.839Z,10.13
2023-04-19T06:16:06.867Z,10.20
2023-04-19T06:17:06.823Z,10.25
2023-04-19T06:18:06.844Z,10.29
2023-04-19T06:19:06.812Z,10.30
2023-04-19T06:20:06.824Z,10.31
2023-04-19T06:21:06.854Z,10.29
2023-04-19T06:22:06.856Z,10.29
2023-04-19T06:23:06.838Z,10.28
2023-04-19T06:24:06.838Z,10.24
2023-04-19T06:25:06.820Z,10.18
2023-04-19T06:26:06.921Z,10.17
2023-04-19T06:27:06.836Z,10.11
2023-04-19T06:28:06.815Z,10.08
2023-04-19T06:29:06.850Z,10.05
2023-04-19T06:30:06.832Z,10.05
2023-04-19T06:31:06.945Z,10.06
2023-04-19T06:32:06.831Z,10.08
2023-04-19T06:33:06.833Z,10.11
2023-04-19T06:34:06.870Z,10.13
2023-04-19T06:35:06.847Z,10.15
2023-04-19T06:36:06.865Z,10.20
2023-04-19T06:37:06.836Z,10.23
2023-04-19T06:38:06.859Z,10.24
2023-04-19T06:39:06.958Z,10.23
2023-04-19T06:40:06.866Z,10.23
2023-04-19T06:41:06.884Z,10.26
2023-04-19T06:42:06.872Z,10.25
2023-04-19T06:43:06.857Z,10.27
2023-04-19T06:44:06.860Z,10.30
2023-04-19T06:45:06.840Z,10.32
2023-04-19T06:46:06.920Z,10.35
2023-04-19T06:47:06.881Z,10.35
2023-04-19T06:48:06.944Z,10.34
2023-04-19T06:49:06.906Z,10.34
2023-04-19T06:50:06.851Z,10.36
2023-04-19T06:51:06.849Z,10.40
2023-04-19T06:52:06.881Z,10.44
2023-04-19T06:53:06.859Z,10.45
2023-04-19T06:54:06.853Z,10.45
2023-04-19T06:55:06.847Z,10.42
2023-04-19T06:56:06.886Z,10.41
2023-04-19T06:57:06.894Z,10.41
2023-04-19T06:58:06.878Z,10.40
2023-04-19T06:59:06.881Z,10.39
2023-04-19T07:00:06.882Z,10.41
2023-04-19T07:01:06.917Z,10.43
2023-04-19T07:02:07.141Z,10.47
2023-04-19T07:03:07.008Z,10.51
2023-04-19T07:04:06.973Z,10.55
2023-04-19T07:05:06.878Z,10.59
2023-04-19T07:06:06.883Z,10.66
2023-04-19T07:07:06.893Z,10.74
2023-04-19T07:08:06.920Z,10.81
2023-04-19T07:09:06.872Z,10.83
2023-04-19T07:10:06.911Z,10.84
2023-04-19T07:11:06.871Z,10.85
2023-04-19T07:12:06.858Z,10.88
2023-04-19T07:13:06.896Z,10.99
2023-04-19T07:14:06.876Z,11.12
2023-04-19T07:15:06.925Z,11.21
2023-04-19T07:16:06.929Z,11.30
2023-04-19T07:17:06.927Z,11.36
2023-04-19T07:18:07.135Z,11.43
2023-04-19T07:19:06.882Z,11.48
2023-04-19T07:20:06.896Z,11.55
2023-04-19T07:21:06.891Z,11.62
2023-04-19T07:22:06.902Z,11.69
2023-04-19T07:23:06.912Z,11.78
2023-04-19T07:24:06.911Z,11.88
2023-04-19T07:25:06.923Z,11.94
2023-04-19T07:26:06.880Z,12.04
2023-04-19T07:27:06.893Z,12.10
2023-04-19T07:28:06.879Z,12.16
2023-04-19T07:29:06.905Z,12.18
2023-04-19T07:30:07.066Z,12.19
2023-04-19T07:31:06.876Z,12.14
2023-04-19T07:32:06.932Z,12.10
2023-04-19T07:33:06.969Z,12.17
2023-04-19T07:34:06.884Z,12.29
2023-04-19T07:35:06.912Z,12.42
2023-04-19T07:36:06.908Z,12.49
2023-04-19T07:37:06.906Z,12.48
2023-04-19T07:38:06.908Z,12.41
2023-04-19T07:39:06.904Z,12.36
2023-04-19T07:40:06.913Z,12.45
2023-04-19T07:42:06.904Z,12.67
2023-04-19T07:43:06.907Z,12.74
2023-04-19T07:44:06.932Z,12.81
2023-04-19T07:45:06.975Z,12.86
2023-04-19T07:46:06.968Z,12.82
2023-04-19T07:47:06.943Z,12.73
2023-04-19T07:48:06.971Z,12.63
2023-04-19T07:49:06.961Z,12.54
2023-04-19T07:50:06.970Z,12.47
2023-04-19T07:51:06.907Z,12.44
2023-04-19T07:52:06.915Z,12.45
2023-04-19T07:53:06.923Z,12.43
2023-04-19T07:54:06.913Z,12.46
2023-04-19T07:55:06.980Z,12.49
2023-04-19T07:56:06.957Z,12.52
2023-04-19T07:57:06.974Z,12.60
2023-04-19T07:58:06.964Z,12.69
2023-04-19T07:59:08.915Z,12.74
2023-04-19T08:00:06.966Z,12.71
2023-04-19T08:01:07.073Z,12.70
2023-04-19T08:02:07.004Z,12.76
2023-04-19T08:03:07.180Z,12.75
2023-04-19T08:04:07.109Z,12.75
2023-04-19T08:05:07.067Z,12.76
2023-04-19T08:06:07.076Z,12.74
2023-04-19T08:07:07.044Z,12.77
2023-04-19T08:08:07.080Z,12.84
2023-04-19T08:09:07.070Z,12.94
2023-04-19T08:10:07.098Z,13.03
2023-04-19T08:11:07.153Z,13.07
2023-04-19T08:12:07.119Z,13.12
2023-04-19T08:13:07.119Z,13.19
2023-04-19T08:14:15.179Z,13.21
2023-04-19T08:15:15.260Z,13.25
2023-04-19T08:17:24.145Z,13.35
2023-04-19T08:18:07.254Z,13.37
2023-04-19T08:19:07.132Z,13.29
2023-04-19T08:20:07.133Z,13.18
2023-04-19T08:21:07.160Z,13.06
2023-04-19T08:22:07.130Z,12.93
2023-04-19T08:23:18.117Z,12.86
2023-04-19T08:24:07.153Z,12.84
2023-04-19T08:25:07.153Z,12.88
2023-04-19T08:26:07.155Z,12.96
2023-04-19T08:27:07.165Z,13.05
2023-04-19T08:28:07.183Z,13.13
2023-04-19T08:29:07.191Z,13.23
2023-04-19T08:30:07.140Z,13.35
2023-04-19T08:31:07.178Z,13.50
2023-04-19T08:32:07.188Z,13.62
2023-04-19T08:33:07.261Z,13.71
2023-04-19T08:34:07.166Z,13.85
2023-04-19T08:35:07.165Z,13.93
2023-04-19T08:36:07.187Z,14.01
2023-04-19T08:37:07.193Z,14.08
2023-04-19T08:38:07.215Z,14.13
2023-04-19T08:39:14.823Z,14.17
2023-04-19T08:40:07.194Z,14.22
2023-04-19T08:41:07.176Z,14.23
2023-04-19T08:42:13.276Z,14.26
2023-04-19T08:43:07.165Z,14.23
2023-04-19T08:44:08.395Z,14.19
2023-04-19T08:46:07.386Z,14.24
2023-04-19T08:47:07.216Z,14.33
2023-04-19T08:48:07.227Z,14.33
2023-04-19T08:49:07.193Z,14.24
2023-04-19T08:50:17.278Z,14.18
2023-04-19T08:51:07.383Z,-144.28
2023-04-19T08:52:13.169Z,-144.28
2023-04-19T08:53:53.446Z,-144.28
2023-04-19T08:55:10.542Z,-144.28
2023-04-19T08:56:21.072Z,-144.28
2023-04-19T09:01:50.711Z,-97.69
2023-04-19T09:03:15.613Z,-144.28
2023-04-19T09:04:35.649Z,-144.28
2023-04-19T09:05:17.094Z,13.84
2023-04-19T09:06:19.359Z,13.84
2023-04-19T09:12:13.254Z,-144.28
2023-04-19T09:13:13.213Z,14.12
2023-04-19T09:14:17.674Z,-144.28
2023-04-19T09:16:23.587Z,-144.28
2023-04-19T09:17:35.563Z,-144.28
2023-04-19T09:18:59.873Z,-144.28
2023-04-19T09:19:48.569Z,-144.28
2023-04-19T09:20:48.503Z,-144.28
2023-04-19T09:21:48.544Z,14.52
2023-04-19T09:22:48.543Z,14.53
2023-04-19T09:23:48.508Z,14.56
2023-04-19T09:26:48.494Z,14.79
2023-04-19T09:27:48.526Z,14.75
2023-04-19T09:28:48.564Z,14.70
2023-04-19T09:29:48.511Z,14.69
2023-04-19T09:31:02.355Z,14.66
2023-04-19T09:31:51.961Z,14.53
2023-04-19T09:32:49.036Z,14.50
2023-04-19T09:33:48.527Z,14.50
2023-04-19T09:34:48.506Z,14.48
2023-04-19T09:35:48.570Z,14.38
2023-04-19T09:36:50.266Z,14.30
2023-04-19T09:38:48.544Z,14.15
2023-04-19T09:39:48.550Z,14.13
2023-04-19T09:40:48.542Z,14.19
2023-04-19T09:41:48.528Z,14.25
2023-04-19T09:45:16.871Z,14.52
2023-04-19T09:45:48.518Z,14.61
2023-04-19T09:46:50.357Z,14.73
2023-04-19T09:47:48.572Z,14.85
2023-04-19T09:48:48.553Z,14.98
2023-04-19T09:49:49.723Z,15.12
2023-04-19T09:50:55.424Z,15.19
2023-04-19T09:51:48.545Z,15.15
2023-04-19T09:52:48.528Z,15.21
2023-04-19T09:53:48.576Z,15.30
2023-04-19T09:54:48.546Z,15.23
2023-04-19T09:55:59.573Z,15.10
2023-04-19T09:56:48.568Z,15.06
2023-04-19T09:57:48.555Z,15.20
2023-04-19T09:58:52.845Z,15.42
2023-04-19T09:59:48.573Z,15.60
2023-04-19T10:00:52.959Z,15.82
2023-04-19T10:01:48.628Z,16.02
2023-04-19T10:02:50.728Z,16.18
2023-04-19T10:03:48.874Z,16.29
2023-04-19T10:05:03.289Z,16.38
2023-04-19T10:05:48.671Z,16.31
2023-04-19T10:07:48.628Z,16.10
2023-04-19T10:08:48.546Z,16.09
2023-04-19T10:09:52.964Z,16.14
2023-04-19T10:10:48.569Z,16.15
2023-04-19T10:11:51.313Z,16.21
2023-04-19T10:13:48.587Z,16.07
2023-04-19T10:14:48.588Z,16.08
2023-04-19T10:15:54.088Z,16.21
2023-04-19T10:16:48.610Z,16.23
2023-04-19T10:17:48.597Z,16.31
2023-04-19T10:18:48.594Z,16.42
2023-04-19T10:19:48.571Z,16.56
2023-04-19T10:20:48.574Z,16.67
2023-04-19T10:21:48.623Z,16.82
2023-04-19T10:22:48.560Z,16.96
2023-04-19T10:23:48.601Z,17.04
2023-04-19T10:24:48.594Z,17.00
2023-04-19T10:25:48.606Z,16.85
2023-04-19T10:26:48.583Z,16.64
2023-04-19T10:27:48.613Z,16.47
2023-04-19T10:28:48.584Z,16.42
2023-04-19T10:29:48.579Z,16.41
2023-04-19T10:30:48.594Z,16.39
2023-04-19T10:31:48.638Z,16.27
2023-04-19T10:32:48.644Z,16.04
2023-04-19T10:33:48.639Z,15.97
2023-04-19T10:34:48.631Z,15.92
2023-04-19T10:35:48.616Z,16.02
2023-04-19T10:36:48.612Z,16.22
2023-04-19T10:37:48.626Z,16.34
2023-04-19T10:38:48.598Z,16.36
2023-04-19T10:39:48.627Z,16.35
2023-04-19T10:40:48.623Z,16.12
2023-04-19T10:41:48.587Z,15.91
2023-04-19T10:42:48.595Z,15.91
2023-04-19T10:43:48.652Z,16.07
2023-04-19T10:44:48.615Z,16.28
2023-04-19T10:45:48.762Z,16.58
2023-04-19T10:46:48.612Z,16.84
2023-04-19T10:47:48.650Z,16.99
2023-04-19T10:48:48.656Z,16.97
2023-04-19T10:49:48.628Z,17.08
2023-04-19T10:50:48.653Z,17.33
2023-04-19T10:51:48.631Z,17.56
2023-04-19T10:52:48.628Z,17.81
2023-04-19T10:53:48.639Z,17.89
2023-04-19T10:54:48.627Z,17.86
2023-04-19T10:55:48.672Z,17.33
2023-04-19T10:56:48.754Z,16.91
2023-04-19T10:57:48.650Z,16.77
2023-04-19T10:58:48.633Z,16.85
2023-04-19T10:59:48.658Z,17.02
2023-04-19T11:00:48.649Z,17.15
2023-04-19T11:01:48.717Z,17.34
2023-04-19T11:02:48.737Z,17.47
2023-04-19T11:03:48.717Z,17.59
2023-04-19T11:04:48.701Z,17.72
2023-04-19T11:05:48.666Z,17.61
2023-04-19T11:06:48.699Z,17.35
2023-04-19T11:07:48.645Z,17.12
2023-04-19T11:08:48.684Z,17.06
2023-04-19T11:09:48.652Z,17.12
2023-04-19T11:10:48.716Z,17.32
2023-04-19T11:11:48.693Z,17.41
2023-04-19T11:12:48.670Z,17.55
2023-04-19T11:13:48.737Z,17.75
2023-04-19T11:14:48.663Z,17.96
2023-04-19T11:15:48.752Z,18.10
2023-04-19T11:16:48.826Z,18.09
2023-04-19T11:17:55.128Z,18.13
2023-04-19T11:18:48.671Z,18.23
2023-04-19T11:19:48.669Z,18.20
2023-04-19T11:20:48.682Z,18.17
2023-04-19T11:21:48.714Z,18.29
2023-04-19T11:22:48.669Z,18.37
2023-04-19T11:23:48.673Z,18.42
2023-04-19T11:24:48.666Z,18.32
2023-04-19T11:25:48.673Z,18.17
2023-04-19T11:26:48.691Z,18.14
2023-04-19T11:27:48.745Z,18.16
2023-04-19T11:28:48.686Z,18.19
2023-04-19T11:29:48.686Z,18.10
2023-04-19T11:30:48.688Z,18.03
2023-04-19T11:31:48.768Z,18.04
2023-04-19T11:32:48.904Z,18.10
2023-04-19T11:33:48.733Z,18.06
2023-04-19T11:34:48.698Z,18.04
2023-04-19T11:35:48.691Z,18.03
2023-04-19T11:36:48.755Z,18.01
2023-04-19T11:37:48.698Z,17.78
2023-04-19T11:38:48.703Z,17.69
2023-04-19T11:39:48.719Z,17.62
2023-04-19T11:40:48.733Z,17.65
2023-04-19T11:41:48.745Z,17.74
2023-04-19T11:42:48.711Z,17.91
2023-04-19T11:43:48.700Z,17.91
2023-04-19T11:44:48.728Z,17.82
2023-04-19T11:45:48.721Z,17.78
2023-04-19T11:46:48.764Z,17.86
2023-04-19T11:47:48.775Z,17.86
2023-04-19T11:48:48.745Z,17.97
2023-04-19T11:49:48.763Z,18.24
2023-04-19T11:50:48.725Z,18.49
2023-04-19T11:51:48.727Z,18.66
2023-04-19T11:52:48.734Z,18.62
2023-04-19T11:53:48.728Z,18.56
2023-04-19T11:54:48.716Z,18.61
2023-04-19T11:55:48.716Z,18.76
2023-04-19T11:56:48.752Z,18.89
2023-04-19T11:57:48.751Z,19.09
2023-04-19T11:58:48.812Z,19.29
2023-04-19T11:59:48.752Z,19.45
2023-04-19T12:00:48.723Z,19.70
2023-04-19T12:01:48.753Z,19.80
2023-04-19T12:02:48.934Z,19.76
2023-04-19T12:03:48.964Z,19.83
2023-04-19T12:04:48.921Z,19.90
2023-04-19T12:05:48.778Z,19.80
2023-04-19T12:06:48.746Z,19.61
2023-04-19T12:07:48.809Z,19.53
2023-04-19T12:08:48.795Z,19.49
2023-04-19T12:09:48.781Z,19.35
2023-04-19T12:10:48.753Z,19.11
2023-04-19T12:11:48.756Z,19.08
2023-04-19T12:12:48.862Z,19.03
2023-04-19T12:13:48.768Z,18.91
2023-04-19T12:14:48.755Z,18.85
2023-04-19T12:15:48.773Z,18.86
2023-04-19T12:16:48.824Z,19.00
2023-04-19T12:17:56.864Z,19.12
2023-04-19T12:18:48.796Z,19.03
2023-04-19T12:19:48.792Z,19.07
2023-04-19T12:20:48.743Z,19.11
2023-04-19T12:21:48.797Z,19.11
2023-04-19T12:22:48.799Z,19.13
2023-04-19T12:23:48.758Z,19.04
2023-04-19T12:24:48.775Z,18.78
2023-04-19T12:25:48.838Z,18.49
2023-04-19T12:26:48.766Z,18.49
2023-04-19T12:27:48.797Z,18.63
2023-04-19T12:28:48.798Z,18.76
2023-04-19T12:29:48.824Z,18.89
2023-04-19T12:30:48.776Z,19.01
2023-04-19T12:31:48.832Z,19.07
2023-04-19T12:32:48.844Z,19.08
2023-04-19T12:33:48.766Z,19.19
2023-04-19T12:34:48.797Z,19.21
2023-04-19T12:35:48.802Z,19.09
2023-04-19T12:36:48.784Z,18.97
2023-04-19T12:37:48.755Z,19.04
2023-04-19T12:38:48.851Z,19.07
2023-04-19T12:39:48.813Z,19.23
2023-04-19T12:40:48.815Z,19.36
2023-04-19T12:41:48.808Z,19.46
2023-04-19T12:42:48.820Z,-144.28
2023-04-19T12:43:48.795Z,19.52
2023-04-19T12:44:48.820Z,19.24
2023-04-19T12:45:48.838Z,19.22
2023-04-19T12:46:48.793Z,19.32
2023-04-19T12:47:48.893Z,19.27
2023-04-19T12:48:48.797Z,19.27
2023-04-19T12:49:48.800Z,19.27
2023-04-19T12:50:48.851Z,19.16
2023-04-19T12:51:48.827Z,19.18
2023-04-19T12:52:48.843Z,19.32
2023-04-19T12:53:48.813Z,19.45
2023-04-19T12:54:48.814Z,19.47
2023-04-19T12:55:48.853Z,19.39
2023-04-19T12:56:48.816Z,19.44
2023-04-19T12:57:48.830Z,19.68
2023-04-19T12:58:48.832Z,19.85
2023-04-19T12:59:48.833Z,19.89
2023-04-19T13:00:48.852Z,19.93
2023-04-19T13:01:48.863Z,20.06
2023-04-19T13:02:48.983Z,20.13
2023-04-19T13:03:49.062Z,19.89
2023-04-19T13:04:49.152Z,19.60
2023-04-19T13:05:51.031Z,19.51
2023-04-19T13:06:48.888Z,19.48
2023-04-19T13:07:48.883Z,19.40
2023-04-19T13:08:48.842Z,19.25
2023-04-19T13:09:48.855Z,19.27
2023-04-19T13:10:48.833Z,19.44
2023-04-19T13:11:48.830Z,19.57
2023-04-19T13:12:48.836Z,19.76
2023-04-19T13:13:48.898Z,19.96
2023-04-19T13:14:48.876Z,20.23
2023-04-19T13:15:48.853Z,20.47
2023-04-19T13:16:48.865Z,20.47
2023-04-19T13:17:48.864Z,20.46
2023-04-19T13:18:48.875Z,20.43
2023-04-19T13:19:48.879Z,20.46
2023-04-19T13:20:48.854Z,20.37
2023-04-19T13:21:49.021Z,20.18
2023-04-19T13:22:48.855Z,19.95
2023-04-19T13:23:48.872Z,19.53
2023-04-19T13:24:48.880Z,19.23
2023-04-19T13:25:48.895Z,19.12
2023-04-19T13:26:48.912Z,18.86
2023-04-19T13:27:48.855Z,18.88